createdAt,value
2018-11-07T00:00:08.465Z,53.84
2018-11-07T00:01:08.158Z,53.79
2018-11-07T00:02:08.125Z,53.8
2018-11-07T00:03:08.414Z,53.78
2018-11-07T00:04:08.293Z,53.83
2018-11-07T00:05:08.347Z,53.85
2018-11-07T00:06:08.149Z,53.88
2018-11-07T00:07:08.733Z,53.82
2018-11-07T00:08:10.198Z,53.84
2018-11-07T00:09:08.221Z,53.84
2018-11-07T00:10:08.329Z,53.83
2018-11-07T00:11:08.284Z,53.8
2018-11-07T00:12:08.324Z,53.9
2018-11-07T00:13:08.098Z,53.85
2018-11-07T00:14:08.883Z,53.84
2018-11-07T00:15:08.435Z,53.86
2018-11-07T00:16:08.577Z,53.86
2018-11-07T00:17:08.775Z,53.86
2018-11-07T00:18:08.595Z,53.77
2018-11-07T00:19:08.551Z,53.82
2018-11-07T00:20:08.109Z,53.87
2018-11-07T00:21:08.262Z,53.82
2018-11-07T00:22:08.153Z,53.8
2018-11-07T00:23:08.322Z,53.84
2018-11-07T00:24:08.312Z,53.8
2018-11-07T00:25:08.386Z,53.8
2018-11-07T00:26:08.823Z,53.84
2018-11-07T00:27:08.202Z,53.8
2018-11-07T00:28:08.335Z,53.84
2018-11-07T00:29:08.089Z,53.79
2018-11-07T00:30:09.645Z,53.82
2018-11-07T00:31:08.550Z,53.79
2018-11-07T00:32:08.282Z,53.8
2018-11-07T00:33:08.415Z,53.83
2018-11-07T00:34:08.097Z,53.79
2018-11-07T00:35:09.931Z,53.89
2018-11-07T00:36:09.069Z,53.82
2018-11-07T00:37:08.217Z,53.89
2018-11-07T00:38:08.788Z,53.85
2018-11-07T00:39:08.512Z,53.87
2018-11-07T00:40:08.258Z,53.89
2018-11-07T00:41:09.032Z,53.84
2018-11-07T00:42:08.818Z,53.84
2018-11-07T00:43:08.329Z,53.86
2018-11-07T00:44:08.161Z,53.85
2018-11-07T00:45:08.665Z,53.83
2018-11-07T00:46:08.185Z,53.83
2018-11-07T00:47:08.345Z,53.86
2018-11-07T00:48:08.147Z,53.82
2018-11-07T00:49:08.755Z,53.9
2018-11-07T00:50:08.110Z,53.85
2018-11-07T00:51:08.189Z,53.9
2018-11-07T00:52:08.799Z,53.88
2018-11-07T00:53:08.227Z,53.81
2018-11-07T00:54:08.285Z,53.82
2018-11-07T00:55:08.079Z,53.85
2018-11-07T00:56:08.545Z,53.91
2018-11-07T00:57:08.444Z,53.87
2018-11-07T00:58:09.662Z,53.85
2018-11-07T00:59:08.532Z,53.84
2018-11-07T01:00:08.423Z,53.86
2018-11-07T01:01:08.222Z,53.82
2018-11-07T01:02:08.375Z,53.86
2018-11-07T01:03:08.208Z,53.84
2018-11-07T01:04:08.261Z,53.83
2018-11-07T01:05:08.182Z,53.84
2018-11-07T01:06:08.320Z,53.78
2018-11-07T01:07:08.338Z,53.79
2018-11-07T01:08:08.171Z,53.83
2018-11-07T01:09:08.495Z,53.85
2018-11-07T01:10:08.189Z,53.86
2018-11-07T01:11:08.370Z,53.89
2018-11-07T01:12:08.412Z,53.89
2018-11-07T01:13:08.233Z,53.88
2018-11-07T01:14:08.079Z,53.85
2018-11-07T01:15:08.422Z,53.78
2018-11-07T01:16:08.343Z,53.83
2018-11-07T01:17:08.176Z,53.83
2018-11-07T01:18:08.237Z,53.86
2018-11-07T01:19:08.384Z,53.84
2018-11-07T01:20:08.230Z,53.8
2018-11-07T01:21:08.093Z,53.83
2018-11-07T01:22:08.370Z,53.8
2018-11-07T01:23:08.316Z,53.79
2018-11-07T01:24:08.139Z,53.78
2018-11-07T01:25:08.547Z,53.77
2018-11-07T01:26:08.066Z,53.8
2018-11-07T01:27:08.198Z,53.83
2018-11-07T01:28:08.682Z,53.82
2018-11-07T01:29:08.152Z,53.84
2018-11-07T01:30:08.346Z,53.86
2018-11-07T01:31:08.126Z,53.83
2018-11-07T01:32:08.247Z,53.9
2018-11-07T01:33:08.090Z,53.85
2018-11-07T01:34:08.261Z,53.81
2018-11-07T01:35:08.430Z,53.81
2018-11-07T01:36:08.170Z,53.79
2018-11-07T01:37:08.289Z,53.82
2018-11-07T01:38:08.318Z,53.9
2018-11-07T01:39:08.519Z,53.86
2018-11-07T01:40:08.094Z,53.87
2018-11-07T01:41:08.595Z,53.87
2018-11-07T01:42:09.514Z,53.91
2018-11-07T01:43:08.591Z,53.84
2018-11-07T01:44:08.351Z,53.88
2018-11-07T01:45:08.279Z,53.83
2018-11-07T01:46:08.340Z,53.86
2018-11-07T01:47:08.119Z,53.83
2018-11-07T01:48:08.239Z,53.83
2018-11-07T01:49:08.282Z,53.86
2018-11-07T01:50:08.522Z,53.87
2018-11-07T01:51:08.391Z,53.86
2018-11-07T01:52:08.192Z,53.91
2018-11-07T01:53:08.519Z,53.86
2018-11-07T01:54:08.543Z,53.84
2018-11-07T01:55:08.280Z,53.85
2018-11-07T01:56:08.307Z,53.86
2018-11-07T01:57:08.232Z,53.86
2018-11-07T01:58:08.686Z,53.78
2018-11-07T01:59:08.478Z,53.82
2018-11-07T02:00:08.201Z,53.81
2018-11-07T02:01:08.260Z,53.85
2018-11-07T02:02:08.373Z,53.87
2018-11-07T02:03:08.312Z,53.85
2018-11-07T02:04:08.733Z,53.86
2018-11-07T02:05:08.437Z,53.92
2018-11-07T02:06:08.118Z,53.88
2018-11-07T02:07:08.351Z,53.81
2018-11-07T02:08:08.044Z,53.78
2018-11-07T02:09:08.544Z,53.8
2018-11-07T02:10:08.743Z,53.75
2018-11-07T02:11:08.754Z,53.72
2018-11-07T02:12:08.286Z,53.76
2018-11-07T02:13:08.221Z,53.76
2018-11-07T02:14:08.338Z,53.8
2018-11-07T02:15:08.143Z,53.8
2018-11-07T02:16:08.468Z,53.8
2018-11-07T02:17:08.305Z,53.84
2018-11-07T02:18:08.996Z,53.8
2018-11-07T02:19:08.291Z,53.78
2018-11-07T02:20:08.470Z,53.8
2018-11-07T02:21:08.591Z,53.78
2018-11-07T02:22:08.174Z,53.78
2018-11-07T02:23:08.562Z,53.77
2018-11-07T02:24:08.255Z,53.75
2018-11-07T02:25:08.227Z,53.74
2018-11-07T02:26:08.980Z,53.75
2018-11-07T02:27:08.509Z,53.8
2018-11-07T02:28:08.200Z,53.74
2018-11-07T02:29:08.038Z,53.73
2018-11-07T02:30:08.203Z,53.71
2018-11-07T02:31:08.295Z,53.75
2018-11-07T02:32:08.216Z,53.73
2018-11-07T02:33:08.528Z,53.78
2018-11-07T02:34:08.172Z,53.73
2018-11-07T02:35:08.530Z,53.76
2018-11-07T02:36:08.210Z,53.78
2018-11-07T02:37:09.729Z,53.76
2018-11-07T02:38:08.354Z,53.75
2018-11-07T02:39:08.205Z,53.76
2018-11-07T02:40:08.344Z,53.75
2018-11-07T02:41:08.080Z,53.74
2018-11-07T02:42:08.206Z,53.75
2018-11-07T02:43:08.119Z,53.77
2018-11-07T02:44:08.213Z,53.74
2018-11-07T02:45:08.260Z,53.75
2018-11-07T02:46:08.561Z,53.74
2018-11-07T02:47:08.294Z,53.73
2018-11-07T02:48:08.188Z,53.79
2018-11-07T02:49:08.191Z,53.75
2018-11-07T02:50:08.902Z,53.75
2018-11-07T02:51:08.199Z,53.73
2018-11-07T02:52:08.392Z,53.78
2018-11-07T02:53:08.151Z,53.77
2018-11-07T02:54:08.388Z,53.76
2018-11-07T02:55:08.165Z,53.8
2018-11-07T02:56:08.358Z,53.77
2018-11-07T02:57:08.017Z,53.75
2018-11-07T02:58:08.191Z,53.76
2018-11-07T02:59:08.279Z,53.77
2018-11-07T03:00:08.124Z,53.74
2018-11-07T03:01:09.414Z,53.77
2018-11-07T03:02:08.109Z,53.74
2018-11-07T03:03:08.772Z,53.74
2018-11-07T03:04:08.102Z,53.77
2018-11-07T03:05:08.277Z,53.78
2018-11-07T03:06:08.310Z,53.79
2018-11-07T03:07:08.625Z,53.77
2018-11-07T03:08:08.257Z,53.8
2018-11-07T03:09:08.362Z,53.82
2018-11-07T03:10:09.681Z,53.82
2018-11-07T03:11:08.138Z,53.83
2018-11-07T03:12:08.203Z,53.85
2018-11-07T03:13:08.213Z,53.76
2018-11-07T03:14:08.147Z,53.78
2018-11-07T03:15:08.590Z,53.76
2018-11-07T03:16:08.131Z,53.79
2018-11-07T03:17:08.174Z,53.8
2018-11-07T03:18:08.589Z,53.76
2018-11-07T03:19:08.144Z,53.76
2018-11-07T03:20:08.363Z,53.8
2018-11-07T03:21:08.197Z,53.79
2018-11-07T03:22:08.204Z,53.86
2018-11-07T03:23:08.157Z,53.88
2018-11-07T03:24:08.130Z,53.81
2018-11-07T03:25:08.262Z,53.8
2018-11-07T03:26:08.132Z,53.78
2018-11-07T03:27:08.261Z,53.74
2018-11-07T03:28:08.043Z,53.76
2018-11-07T03:29:08.503Z,53.79
2018-11-07T03:30:08.411Z,53.8
2018-11-07T03:31:08.241Z,53.8
2018-11-07T03:32:08.336Z,53.81
2018-11-07T03:33:08.096Z,53.83
2018-11-07T03:34:08.396Z,53.73
2018-11-07T03:35:08.433Z,53.84
2018-11-07T03:36:08.213Z,53.75
2018-11-07T03:37:08.062Z,53.76
2018-11-07T03:38:08.243Z,53.76
2018-11-07T03:39:08.435Z,53.72
2018-11-07T03:40:08.090Z,53.79
2018-11-07T03:41:08.352Z,53.75
2018-11-07T03:42:08.086Z,53.7
2018-11-07T03:43:08.479Z,53.76
2018-11-07T03:44:08.148Z,53.74
2018-11-07T03:45:08.153Z,53.81
2018-11-07T03:46:08.159Z,53.81
2018-11-07T03:47:08.402Z,53.75
2018-11-07T03:48:08.340Z,53.81
2018-11-07T03:49:08.189Z,53.82
2018-11-07T03:50:08.411Z,53.79
2018-11-07T03:51:08.177Z,53.7
2018-11-07T03:52:08.303Z,53.77
2018-11-07T03:53:09.290Z,53.7
2018-11-07T03:54:08.235Z,53.73
2018-11-07T03:55:08.216Z,53.75
2018-11-07T03:56:08.207Z,53.73
2018-11-07T03:57:08.262Z,53.78
2018-11-07T03:58:08.535Z,53.74
2018-11-07T03:59:08.150Z,53.75
2018-11-07T04:00:08.130Z,53.67
2018-11-07T04:01:08.233Z,53.66
2018-11-07T04:02:08.521Z,53.69
2018-11-07T04:03:08.162Z,53.7
2018-11-07T04:04:08.434Z,53.74
2018-11-07T04:05:08.099Z,53.7
2018-11-07T04:06:08.285Z,53.7
2018-11-07T04:07:07.980Z,53.71
2018-11-07T04:08:08.294Z,53.71
2018-11-07T04:09:08.230Z,53.8
2018-11-07T04:10:08.083Z,53.74
2018-11-07T04:11:08.247Z,53.78
2018-11-07T04:12:08.182Z,53.74
2018-11-07T04:13:08.313Z,53.69
2018-11-07T04:14:08.116Z,53.7
2018-11-07T04:15:08.138Z,53.75
2018-11-07T04:16:08.270Z,53.8
2018-11-07T04:17:08.070Z,53.75
2018-11-07T04:18:08.659Z,53.73
2018-11-07T04:19:08.138Z,53.7
2018-11-07T04:20:08.197Z,53.71
2018-11-07T04:21:08.002Z,53.67
2018-11-07T04:22:08.189Z,53.69
2018-11-07T04:23:08.217Z,53.71
2018-11-07T04:24:08.133Z,53.7
2018-11-07T04:25:08.187Z,53.69
2018-11-07T04:26:08.102Z,53.66
2018-11-07T04:27:08.218Z,53.65
2018-11-07T04:28:07.981Z,53.66
2018-11-07T04:29:08.177Z,53.61
2018-11-07T04:30:08.246Z,53.68
2018-11-07T04:31:08.177Z,53.72
2018-11-07T04:32:08.235Z,53.72
2018-11-07T04:33:08.213Z,53.76
2018-11-07T04:34:08.212Z,53.73
2018-11-07T04:35:08.046Z,53.7
2018-11-07T04:36:08.634Z,53.72
2018-11-07T04:37:09.364Z,53.75
2018-11-07T04:38:08.280Z,53.71
2018-11-07T04:39:09.869Z,53.74
2018-11-07T04:40:08.123Z,53.75
2018-11-07T04:41:08.175Z,53.79
2018-11-07T04:42:08.501Z,53.69
2018-11-07T04:43:08.211Z,53.68
2018-11-07T04:44:08.282Z,53.73
2018-11-07T04:45:08.160Z,53.69
2018-11-07T04:46:08.005Z,53.75
2018-11-07T04:47:08.334Z,53.73
2018-11-07T04:48:09.407Z,53.7
2018-11-07T04:49:08.254Z,53.7
2018-11-07T04:50:07.964Z,53.68
2018-11-07T04:51:08.160Z,53.72
2018-11-07T04:52:08.323Z,53.71
2018-11-07T04:53:08.090Z,53.69
2018-11-07T04:54:08.396Z,53.67
2018-11-07T04:55:08.182Z,53.65
2018-11-07T04:56:08.101Z,53.69
2018-11-07T04:57:08.565Z,53.66
2018-11-07T04:58:08.318Z,53.68
2018-11-07T04:59:08.148Z,53.66
2018-11-07T05:00:09.386Z,53.72
2018-11-07T05:01:08.264Z,53.66
2018-11-07T05:02:08.212Z,53.71
2018-11-07T05:03:08.439Z,53.75
2018-11-07T05:04:08.456Z,53.74
2018-11-07T05:05:08.410Z,53.68
2018-11-07T05:06:08.115Z,53.65
2018-11-07T05:07:08.277Z,53.7
2018-11-07T05:08:08.178Z,53.69
2018-11-07T05:09:08.641Z,53.75
2018-11-07T05:10:08.063Z,53.69
2018-11-07T05:11:08.223Z,53.67
2018-11-07T05:12:08.409Z,53.72
2018-11-07T05:13:08.125Z,53.82
2018-11-07T05:14:08.195Z,53.78
2018-11-07T05:15:08.309Z,53.84
2018-11-07T05:16:07.989Z,53.84
2018-11-07T05:17:08.199Z,53.83
2018-11-07T05:18:08.335Z,53.84
2018-11-07T05:19:08.084Z,53.81
2018-11-07T05:20:08.195Z,53.86
2018-11-07T05:21:08.031Z,53.82
2018-11-07T05:22:08.316Z,53.78
2018-11-07T05:23:08.793Z,53.72
2018-11-07T05:24:08.110Z,53.72
2018-11-07T05:25:08.480Z,53.7
2018-11-07T05:26:08.975Z,53.65
2018-11-07T05:27:08.306Z,53.65
2018-11-07T05:28:07.994Z,53.7
2018-11-07T05:29:08.042Z,53.71
2018-11-07T05:30:08.066Z,53.66
2018-11-07T05:31:08.341Z,53.69
2018-11-07T05:32:09.727Z,53.7
2018-11-07T05:33:08.260Z,53.66
2018-11-07T05:34:08.143Z,53.64
2018-11-07T05:35:07.976Z,53.6
2018-11-07T05:36:08.193Z,53.65
2018-11-07T05:37:08.223Z,53.66
2018-11-07T05:38:08.505Z,53.67
2018-11-07T05:39:08.238Z,53.67
2018-11-07T05:40:08.071Z,53.67
2018-11-07T05:41:09.421Z,53.68
2018-11-07T05:42:08.071Z,53.71
2018-11-07T05:43:08.043Z,53.64
2018-11-07T05:44:08.249Z,53.66
2018-11-07T05:45:08.033Z,53.68
2018-11-07T05:46:08.185Z,53.69
2018-11-07T05:47:08.292Z,53.71
2018-11-07T05:48:08.159Z,53.66
2018-11-07T05:49:09.274Z,53.72
2018-11-07T05:50:08.464Z,53.66
2018-11-07T05:51:08.125Z,53.71
2018-11-07T05:52:07.985Z,53.66
2018-11-07T05:53:08.143Z,53.65
2018-11-07T05:54:07.981Z,53.62
2018-11-07T05:55:08.248Z,53.6
2018-11-07T05:56:08.185Z,53.59
2018-11-07T05:57:08.042Z,53.6
2018-11-07T05:58:08.155Z,53.61
2018-11-07T05:59:08.084Z,53.59
2018-11-07T06:00:08.237Z,53.57
2018-11-07T06:01:08.187Z,53.54
2018-11-07T06:02:08.040Z,53.55
2018-11-07T06:03:08.269Z,53.54
2018-11-07T06:04:08.402Z,53.55
2018-11-07T06:05:08.184Z,53.55
2018-11-07T06:06:08.050Z,53.56
2018-11-07T06:07:08.482Z,53.57
2018-11-07T06:08:08.170Z,53.58
2018-11-07T06:09:08.433Z,53.58
2018-11-07T06:10:08.443Z,53.55
2018-11-07T06:11:08.048Z,53.53
2018-11-07T06:12:08.421Z,53.55
2018-11-07T06:13:07.914Z,53.61
2018-11-07T06:14:08.200Z,53.58
2018-11-07T06:15:08.134Z,53.6
2018-11-07T06:16:09.370Z,53.55
2018-11-07T06:17:08.240Z,53.57
2018-11-07T06:18:08.126Z,53.59
2018-11-07T06:19:08.150Z,53.6
2018-11-07T06:20:08.155Z,53.61
2018-11-07T06:21:08.153Z,53.58
2018-11-07T06:22:08.104Z,53.6
2018-11-07T06:23:08.042Z,53.63
2018-11-07T06:24:08.824Z,53.56
2018-11-07T06:25:08.323Z,53.59
2018-11-07T06:26:08.114Z,53.53
2018-11-07T06:27:07.985Z,53.52
2018-11-07T06:28:08.461Z,53.51
2018-11-07T06:29:08.332Z,53.51
2018-11-07T06:30:08.370Z,53.49
2018-11-07T06:31:08.193Z,53.49
2018-11-07T06:32:08.472Z,53.51
2018-11-07T06:33:08.331Z,53.55
2018-11-07T06:34:09.718Z,53.55
2018-11-07T06:35:08.138Z,53.54
2018-11-07T06:36:08.073Z,53.51
2018-11-07T06:37:08.071Z,53.5
2018-11-07T06:38:08.713Z,53.56
2018-11-07T06:39:07.990Z,53.51
2018-11-07T06:40:08.255Z,53.57
2018-11-07T06:41:07.989Z,53.52
2018-11-07T06:42:08.438Z,53.47
2018-11-07T06:43:08.037Z,53.54
2018-11-07T06:44:08.158Z,53.53
2018-11-07T06:45:08.378Z,53.6
2018-11-07T06:46:08.254Z,53.6
2018-11-07T06:47:08.166Z,53.6
2018-11-07T06:48:07.992Z,53.58
2018-11-07T06:49:08.459Z,53.59
2018-11-07T06:50:08.414Z,53.53
2018-11-07T06:51:08.046Z,53.5
2018-11-07T06:52:08.213Z,53.5
2018-11-07T06:53:08.020Z,53.47
2018-11-07T06:54:08.243Z,53.5
2018-11-07T06:55:08.735Z,53.56
2018-11-07T06:56:08.164Z,53.56
2018-11-07T06:57:08.156Z,53.55
2018-11-07T06:58:08.208Z,53.57
2018-11-07T06:59:08.178Z,53.51
2018-11-07T07:00:08.010Z,53.55
2018-11-07T07:01:08.369Z,53.59
2018-11-07T07:02:07.940Z,53.54
2018-11-07T07:03:08.090Z,53.5
2018-11-07T07:04:08.379Z,53.6
2018-11-07T07:05:08.570Z,53.54
2018-11-07T07:06:08.505Z,53.53
2018-11-07T07:07:08.073Z,53.52
2018-11-07T07:08:08.414Z,53.53
2018-11-07T07:09:08.076Z,53.51
2018-11-07T07:10:08.220Z,53.55
2018-11-07T07:11:07.994Z,53.52
2018-11-07T07:12:08.108Z,53.54
2018-11-07T07:13:08.246Z,53.58
2018-11-07T07:14:08.066Z,53.52
2018-11-07T07:15:08.903Z,53.56
2018-11-07T07:16:08.053Z,53.5
2018-11-07T07:17:08.153Z,53.56
2018-11-07T07:18:09.615Z,53.47
2018-11-07T07:19:08.069Z,53.53
2018-11-07T07:20:08.073Z,53.52
2018-11-07T07:21:08.067Z,53.5
2018-11-07T07:22:08.153Z,53.54
2018-11-07T07:23:07.976Z,53.58
2018-11-07T07:24:08.134Z,53.53
2018-11-07T07:25:08.077Z,53.55
2018-11-07T07:26:07.952Z,53.52
2018-11-07T07:27:08.191Z,53.55
2018-11-07T07:28:08.033Z,53.58
2018-11-07T07:29:08.122Z,53.52
2018-11-07T07:30:08.273Z,53.52
2018-11-07T07:31:08.184Z,53.54
2018-11-07T07:32:07.966Z,53.55
2018-11-07T07:33:09.126Z,53.67
2018-11-07T07:34:08.188Z,53.66
2018-11-07T07:35:08.092Z,53.61
2018-11-07T07:36:08.118Z,53.59
2018-11-07T07:37:07.961Z,53.57
2018-11-07T07:38:08.346Z,53.52
2018-11-07T07:39:08.351Z,53.13
2018-11-07T07:40:08.185Z,52.34
2018-11-07T07:41:07.908Z,51.89
2018-11-07T07:42:08.188Z,51.73
2018-11-07T07:43:08.502Z,51.54
2018-11-07T07:44:08.446Z,51.49
2018-11-07T07:45:08.225Z,51.56
2018-11-07T07:46:08.326Z,51.49
2018-11-07T07:47:08.065Z,51.39
2018-11-07T07:48:08.214Z,51.73
2018-11-07T07:49:08.982Z,51.92
2018-11-07T07:50:08.519Z,51.97
2018-11-07T07:51:08.034Z,51.82
2018-11-07T07:52:08.469Z,51.77
2018-11-07T07:53:09.459Z,51.79
2018-11-07T07:54:08.236Z,51.77
2018-11-07T07:55:08.238Z,51.66
2018-11-07T07:56:08.142Z,51.69
2018-11-07T07:57:08.115Z,51.83
2018-11-07T07:58:07.959Z,51.68
2018-11-07T07:59:08.176Z,51.78
2018-11-07T08:00:07.945Z,51.92
2018-11-07T08:01:08.044Z,51.96
2018-11-07T08:02:08.514Z,52
2018-11-07T08:03:08.073Z,52.08
2018-11-07T08:04:08.287Z,52.01
2018-11-07T08:05:07.981Z,52
2018-11-07T08:06:08.094Z,52.21
2018-11-07T08:07:09.754Z,52.07
2018-11-07T08:08:08.293Z,52.11
2018-11-07T08:09:08.475Z,52.07
2018-11-07T08:10:08.018Z,52.13
2018-11-07T08:11:08.125Z,52.19
2018-11-07T08:12:08.315Z,52.14
2018-11-07T08:13:08.098Z,52.01
2018-11-07T08:14:09.856Z,52.53
2018-11-07T08:15:07.975Z,52.51
2018-11-07T08:16:08.285Z,52.37
2018-11-07T08:17:08.435Z,52.23
2018-11-07T08:18:08.534Z,52.19
2018-11-07T08:19:08.157Z,52.06
2018-11-07T08:20:08.220Z,52.27
2018-11-07T08:21:08.688Z,52.71
2018-11-07T08:22:08.337Z,52.67
2018-11-07T08:23:08.196Z,52.97
2018-11-07T08:24:08.051Z,53.01
2018-11-07T08:25:08.113Z,52.99
2018-11-07T08:26:08.285Z,52.9
2018-11-07T08:27:08.146Z,52.85
2018-11-07T08:28:08.281Z,52.67
2018-11-07T08:29:09.332Z,52.7
2018-11-07T08:30:08.489Z,52.88
2018-11-07T08:31:08.037Z,53.24
2018-11-07T08:32:08.091Z,53.43
2018-11-07T08:33:08.132Z,53.73
2018-11-07T08:34:08.051Z,53.97
2018-11-07T08:35:08.027Z,54.14
2018-11-07T08:36:08.255Z,54.09
2018-11-07T08:37:08.489Z,54.28
2018-11-07T08:38:08.230Z,54.34
2018-11-07T08:39:08.386Z,54.44
2018-11-07T08:40:08.062Z,54.46
2018-11-07T08:41:08.126Z,54.47
2018-11-07T08:42:08.642Z,54.52
2018-11-07T08:43:08.152Z,54.68
2018-11-07T08:44:08.626Z,54.97
2018-11-07T08:45:07.974Z,54.86
2018-11-07T08:46:08.254Z,54.85
2018-11-07T08:47:08.050Z,55.12
2018-11-07T08:48:09.492Z,55.17
2018-11-07T08:49:08.014Z,55.14
2018-11-07T08:50:08.050Z,55.26
2018-11-07T08:51:08.290Z,55.22
2018-11-07T08:52:08.125Z,55.17
2018-11-07T08:53:08.137Z,55.22
2018-11-07T08:54:08.166Z,55.31
2018-11-07T08:55:09.863Z,55.31
2018-11-07T08:56:07.993Z,55.29
2018-11-07T08:57:07.985Z,55.4
2018-11-07T08:58:08.120Z,55.35
2018-11-07T08:59:07.980Z,55.45
2018-11-07T09:00:08.107Z,55.61
2018-11-07T09:01:08.341Z,55.57
2018-11-07T09:02:09.016Z,55.52
2018-11-07T09:03:09.184Z,55.45
2018-11-07T09:04:08.016Z,55.67
2018-11-07T09:05:07.902Z,55.58
2018-11-07T09:06:08.036Z,55.57
2018-11-07T09:07:08.143Z,55.51
2018-11-07T09:08:07.930Z,55.57
2018-11-07T09:09:08.095Z,55.53
2018-11-07T09:10:07.994Z,55.58
2018-11-07T09:11:08.023Z,55.4
2018-11-07T09:12:09.381Z,55.49
2018-11-07T09:13:08.099Z,55.67
2018-11-07T09:14:08.123Z,55.59
2018-11-07T09:15:08.603Z,55.63
2018-11-07T09:16:08.118Z,55.85
2018-11-07T09:17:07.993Z,55.77
2018-11-07T09:18:08.002Z,55.67
2018-11-07T09:19:08.044Z,55.79
2018-11-07T09:20:08.820Z,55.75
2018-11-07T09:21:08.047Z,55.63
2018-11-07T09:22:08.472Z,55.83
2018-11-07T09:23:08.250Z,55.79
2018-11-07T09:24:08.175Z,55.87
2018-11-07T09:25:08.151Z,55.76
2018-11-07T09:26:07.872Z,55.94
2018-11-07T09:27:08.016Z,56.07
2018-11-07T09:28:08.383Z,56.27
2018-11-07T09:29:09.312Z,56.29
2018-11-07T09:30:08.136Z,56.21
2018-11-07T09:31:07.913Z,56.18
2018-11-07T09:32:08.015Z,56.26
2018-11-07T09:33:08.122Z,56.16
2018-11-07T09:34:08.006Z,56.39
2018-11-07T09:35:08.098Z,56.3
2018-11-07T09:36:07.921Z,56.25
2018-11-07T09:37:08.383Z,56.24
2018-11-07T09:38:08.072Z,56.34
2018-11-07T09:39:08.285Z,56.11
2018-11-07T09:40:07.893Z,56.24
2018-11-07T09:41:08.308Z,56.26
2018-11-07T09:42:08.317Z,56.24
2018-11-07T09:43:08.080Z,56.37
2018-11-07T09:44:08.294Z,56.31
2018-11-07T09:45:08.191Z,56.05
2018-11-07T09:46:08.431Z,56.17
2018-11-07T09:47:07.901Z,56
2018-11-07T09:48:09.060Z,56.13
2018-11-07T09:49:07.885Z,56.11
2018-11-07T09:50:08.269Z,56.25
2018-11-07T09:51:08.316Z,56.25
2018-11-07T09:52:07.907Z,56.18
2018-11-07T09:53:08.189Z,56.31
2018-11-07T09:54:08.853Z,56.33
2018-11-07T09:55:08.442Z,56.42
2018-11-07T09:56:09.245Z,56.21
2018-11-07T09:57:08.092Z,56.1
2018-11-07T09:58:08.361Z,56.19
2018-11-07T09:59:07.940Z,56.07
2018-11-07T10:00:08.033Z,56.08
2018-11-07T10:01:07.938Z,56.05
2018-11-07T10:02:08.370Z,56.07
2018-11-07T10:03:07.866Z,55.97
2018-11-07T10:04:08.005Z,55.85
2018-11-07T10:05:08.185Z,55.78
2018-11-07T10:06:08.049Z,55.69
2018-11-07T10:07:08.029Z,55.75
2018-11-07T10:08:08.194Z,55.79
2018-11-07T10:09:08.846Z,55.58
2018-11-07T10:10:08.734Z,55.52
2018-11-07T10:11:08.053Z,55.56
2018-11-07T10:12:08.065Z,55.49
2018-11-07T10:13:08.237Z,55.5
2018-11-07T10:14:08.141Z,55.42
2018-11-07T10:15:08.215Z,55.39
2018-11-07T10:16:08.724Z,55.48
2018-11-07T10:17:07.923Z,55.48
2018-11-07T10:18:08.433Z,55.4
2018-11-07T10:19:07.826Z,55.33
2018-11-07T10:20:08.385Z,55.3
2018-11-07T10:21:08.606Z,55.32
2018-11-07T10:22:07.998Z,55.46
2018-11-07T10:23:08.021Z,55.42
2018-11-07T10:24:07.903Z,55.29
2018-11-07T10:25:08.082Z,55.37
2018-11-07T10:26:07.854Z,55.34
2018-11-07T10:27:10.636Z,55.32
2018-11-07T10:28:12.674Z,55.4
2018-11-07T10:29:12.033Z,55.29
2018-11-07T10:30:12.627Z,55.3
2018-11-07T10:31:08.153Z,55.31
2018-11-07T10:32:07.991Z,55.22
2018-11-07T10:33:07.993Z,55.16
2018-11-07T10:34:07.898Z,55.28
2018-11-07T10:35:08.104Z,55.31
2018-11-07T10:36:07.832Z,55.29
2018-11-07T10:37:08.010Z,55.38
2018-11-07T10:38:10.361Z,55.27
2018-11-07T10:39:07.913Z,55.35
2018-11-07T10:40:08.658Z,55.48
2018-11-07T10:41:08.165Z,55.55
2018-11-07T10:42:08.216Z,55.42
2018-11-07T10:43:08.227Z,55.36
2018-11-07T10:44:08.919Z,55.36
2018-11-07T10:45:08.258Z,55.3
2018-11-07T10:46:09.472Z,55.27
2018-11-07T10:47:08.895Z,55.19
2018-11-07T10:48:08.128Z,55.23
2018-11-07T10:49:07.906Z,55.24
2018-11-07T10:50:08.285Z,55.27
2018-11-07T10:51:08.059Z,55.35
2018-11-07T10:52:08.145Z,55.34
2018-11-07T10:53:08.013Z,55.32
2018-11-07T10:54:08.054Z,55.25
2018-11-07T10:55:09.208Z,55.39
2018-11-07T10:56:08.013Z,55.64
2018-11-07T10:57:08.305Z,55.8
2018-11-07T10:58:08.373Z,55.88
2018-11-07T10:59:08.004Z,55.96
2018-11-07T11:00:08.035Z,55.98
2018-11-07T11:01:08.229Z,55.88
2018-11-07T11:02:08.363Z,55.93
2018-11-07T11:03:07.923Z,56.2
2018-11-07T11:04:08.272Z,56.35
2018-11-07T11:05:09.465Z,56.3
2018-11-07T11:06:08.047Z,56.24
2018-11-07T11:07:07.833Z,56.36
2018-11-07T11:08:08.200Z,56.4
2018-11-07T11:09:08.027Z,56.36
2018-11-07T11:10:07.915Z,56.37
2018-11-07T11:11:08.736Z,56.41
2018-11-07T11:12:08.108Z,56.01
2018-11-07T11:13:08.248Z,56.03
2018-11-07T11:14:08.202Z,55.92
2018-11-07T11:15:08.182Z,55.78
2018-11-07T11:16:08.266Z,55.76
2018-11-07T11:17:08.334Z,55.67
2018-11-07T11:18:08.027Z,55.59
2018-11-07T11:19:07.904Z,55.59
2018-11-07T11:20:08.022Z,55.46
2018-11-07T11:21:08.100Z,55.51
2018-11-07T11:22:08.002Z,55.37
2018-11-07T11:23:08.099Z,55.36
2018-11-07T11:24:07.839Z,55.37
2018-11-07T11:25:07.944Z,55.27
2018-11-07T11:26:09.184Z,55.27
2018-11-07T11:27:08.535Z,55.23
2018-11-07T11:28:07.960Z,55.24
2018-11-07T11:29:07.994Z,55.2
2018-11-07T11:30:08.293Z,55.17
2018-11-07T11:31:07.839Z,55.08
2018-11-07T11:32:08.279Z,55.05
2018-11-07T11:33:07.924Z,55.05
2018-11-07T11:34:10.343Z,55.06
2018-11-07T11:35:11.231Z,55.01
2018-11-07T11:36:07.880Z,54.94
2018-11-07T11:37:08.315Z,54.96
2018-11-07T11:38:08.100Z,54.94
2018-11-07T11:39:07.933Z,54.94
2018-11-07T11:40:08.017Z,54.89
2018-11-07T11:41:09.777Z,54.93
2018-11-07T11:42:08.362Z,54.89
2018-11-07T11:43:07.894Z,54.85
2018-11-07T11:44:07.968Z,54.84
2018-11-07T11:45:08.993Z,54.81
2018-11-07T11:46:07.912Z,54.81
2018-11-07T11:47:08.084Z,54.8
2018-11-07T11:48:08.200Z,54.76
2018-11-07T11:49:09.198Z,54.72
2018-11-07T11:50:07.955Z,54.68
2018-11-07T11:51:08.575Z,54.73
2018-11-07T11:52:08.435Z,54.69
2018-11-07T11:53:07.910Z,54.71
2018-11-07T11:54:07.955Z,54.72
2018-11-07T11:55:07.937Z,54.64
2018-11-07T11:56:08.013Z,54.68
2018-11-07T11:57:09.233Z,54.68
2018-11-07T11:58:07.932Z,54.6
2018-11-07T11:59:09.812Z,54.58
2018-11-07T12:00:13.064Z,54.61
2018-11-07T12:01:07.978Z,54.62
2018-11-07T12:02:08.688Z,54.62
2018-11-07T12:03:07.947Z,54.62
2018-11-07T12:04:08.200Z,54.57
2018-11-07T12:05:07.940Z,54.6
2018-11-07T12:06:08.240Z,54.65
2018-11-07T12:07:07.882Z,54.64
2018-11-07T12:08:08.590Z,54.6
2018-11-07T12:09:08.182Z,54.63
2018-11-07T12:10:07.980Z,54.63
2018-11-07T12:11:08.054Z,54.7
2018-11-07T12:12:09.864Z,54.66
2018-11-07T12:13:09.279Z,54.57
2018-11-07T12:14:08.064Z,54.6
2018-11-07T12:15:08.641Z,54.62
2018-11-07T12:16:08.381Z,54.62
2018-11-07T12:17:07.991Z,54.64
2018-11-07T12:18:07.999Z,54.58
2018-11-07T12:19:07.855Z,54.6
2018-11-07T12:20:08.063Z,54.62
2018-11-07T12:21:09.263Z,54.65
2018-11-07T12:22:07.882Z,54.57
2018-11-07T12:23:08.458Z,54.55
2018-11-07T12:24:07.997Z,54.6
2018-11-07T12:25:08.154Z,54.56
2018-11-07T12:26:08.087Z,54.61
2018-11-07T12:27:08.003Z,54.57
2018-11-07T12:28:08.124Z,54.55
2018-11-07T12:29:07.877Z,54.57
2018-11-07T12:30:08.392Z,54.54
2018-11-07T12:31:07.910Z,54.54
2018-11-07T12:32:08.049Z,54.56
2018-11-07T12:33:08.057Z,54.51
2018-11-07T12:34:07.921Z,54.59
2018-11-07T12:35:08.007Z,54.64
2018-11-07T12:36:08.556Z,54.57
2018-11-07T12:37:08.066Z,54.5
2018-11-07T12:38:08.311Z,54.49
2018-11-07T12:39:08.108Z,54.5
2018-11-07T12:40:08.038Z,54.53
2018-11-07T12:41:07.978Z,54.48
2018-11-07T12:42:07.984Z,54.54
2018-11-07T12:43:08.006Z,54.5
2018-11-07T12:44:08.001Z,54.54
2018-11-07T12:45:08.290Z,54.52
2018-11-07T12:46:08.222Z,54.51
2018-11-07T12:47:08.189Z,54.54
2018-11-07T12:48:07.887Z,54.53
2018-11-07T12:49:07.935Z,54.49
2018-11-07T12:50:10.719Z,54.55
2018-11-07T12:51:08.041Z,54.48
2018-11-07T12:52:08.290Z,54.54
2018-11-07T12:53:07.822Z,54.55
2018-11-07T12:54:08.074Z,54.56
2018-11-07T12:55:07.833Z,54.57